sensor_id;sensor_type;location;lat;lon;timestamp;temperature;humidity
44063;DHT22;29727;47.606;19.130;2022-09-03T05:15:12;15.00;76.30
44063;DHT22;29727;47.606;19.130;2022-09-03T05:17:37;15.00;76.90
44063;DHT22;29727;47.606;19.130;2022-09-03T05:20:04;15.10;77.30
44063;DHT22;29727;47.606;19.130;2022-09-03T05:22:33;15.10;78.00
44063;DHT22;29727;47.606;19.130;2022-09-03T05:24:59;15.10;78.00
44063;DHT22;29727;47.606;19.130;2022-09-03T05:27:25;15.10;78.00
44063;DHT22;29727;47.606;19.130;2022-09-03T05:29:50;15.20;78.20
44063;DHT22;29727;47.606;19.130;2022-09-03T05:32:16;15.20;78.20
44063;DHT22;29727;47.606;19.130;2022-09-03T05:34:44;15.20;78.30
44063;DHT22;29727;47.606;19.130;2022-09-03T05:37:10;15.30;78.20
44063;DHT22;29727;47.606;19.130;2022-09-03T07:42:06;19.00;70.90
44063;DHT22;29727;47.606;19.130;2022-09-03T07:44:33;19.10;71.40
44063;DHT22;29727;47.606;19.130;2022-09-03T07:46:59;19.20;69.70
44063;DHT22;29727;47.606;19.130;2022-09-03T07:49:25;19.30;69.70
44063;DHT22;29727;47.606;19.130;2022-09-03T07:51:50;19.40;69.20
44063;DHT22;29727;47.606;19.130;2022-09-03T07:54:18;19.50;67.10
44063;DHT22;29727;47.606;19.130;2022-09-03T07:56:44;19.50;67.40
44063;DHT22;29727;47.606;19.130;2022-09-03T07:59:10;19.60;68.10
44063;DHT22;29727;47.606;19.130;2022-09-03T08:01:37;19.70;67.10
44063;DHT22;29727;47.606;19.130;2022-09-03T08:04:03;19.90;65.80
44063;DHT22;29727;47.606;19.130;2022-09-03T08:06:32;19.90;66.20
44063;DHT22;29727;47.606;19.130;2022-09-03T08:09:04;20.10;65.70
44063;DHT22;29727;47.606;19.130;2022-09-03T08:11:29;20.20;66.30
44063;DHT22;29727;47.606;19.130;2022-09-03T09:21:26;23.20;56.20
44063;DHT22;29727;47.606;19.130;2022-09-03T09:23:54;23.20;56.60
44063;DHT22;29727;47.606;19.130;2022-09-03T09:26:22;23.30;54.80
44063;DHT22;29727;47.606;19.130;2022-09-03T09:28:54;23.50;53.90
44063;DHT22;29727;47.606;19.130;2022-09-03T09:31:21;23.60;52.70
44063;DHT22;29727;47.606;19.130;2022-09-03T09:33:47;23.70;54.60
44063;DHT22;29727;47.606;19.130;2022-09-03T09:36:15;23.80;53.70
44063;DHT22;29727;47.606;19.130;2022-09-03T09:38:42;23.80;52.50
44063;DHT22;29727;47.606;19.130;2022-09-03T09:41:09;24.00;52.60
44063;DHT22;29727;47.606;19.130;2022-09-03T09:43:35;24.10;53.90
44063;DHT22;29727;47.606;19.130;2022-09-03T09:48:54;24.20;50.90
44063;DHT22;29727;47.606;19.130;2022-09-03T09:51:23;24.30;51.60
44063;DHT22;29727;47.606;19.130;2022-09-03T09:54:12;24.30;54.00
44063;DHT22;29727;47.606;19.130;2022-09-03T09:56:41;24.40;50.60
44063;DHT22;29727;47.606;19.130;2022-09-03T09:59:08;24.50;51.10
44063;DHT22;29727;47.606;19.130;2022-09-03T10:01:40;24.60;50.00
44063;DHT22;29727;47.606;19.130;2022-09-03T10:04:20;24.80;50.40
44063;DHT22;29727;47.606;19.130;2022-09-03T10:06:54;24.80;51.00
44063;DHT22;29727;47.606;19.130;2022-09-03T10:09:31;24.90;53.40
44063;DHT22;29727;47.606;19.130;2022-09-03T10:14:33;25.20;52.10
44063;DHT22;29727;47.606;19.130;2022-09-03T10:17:08;25.40;50.40
44063;DHT22;29727;47.606;19.130;2022-09-03T10:20:33;25.50;47.90
44063;DHT22;29727;47.606;19.130;2022-09-03T10:22:58;25.70;47.10
44063;DHT22;29727;47.606;19.130;2022-09-03T10:26:15;25.80;46.90
44063;DHT22;29727;47.606;19.130;2022-09-03T10:28:17;25.80;46.30
44063;DHT22;29727;47.606;19.130;2022-09-03T10:33:48;25.90;47.00
44063;DHT22;29727;47.606;19.130;2022-09-03T10:36:24;26.00;47.70
44063;DHT22;29727;47.606;19.130;2022-09-03T10:39:05;26.10;47.40
44063;DHT22;29727;47.606;19.130;2022-09-03T10:41:47;26.20;47.30
44063;DHT22;29727;47.606;19.130;2022-09-03T10:44:35;26.40;48.40
44063;DHT22;29727;47.606;19.130;2022-09-03T10:47:21;26.40;47.50
44063;DHT22;29727;47.606;19.130;2022-09-03T10:52:58;26.80;45.70
44063;DHT22;29727;47.606;19.130;2022-09-03T11:01:38;27.10;44.50
44063;DHT22;29727;47.606;19.130;2022-09-03T11:04:27;27.10;45.70
44063;DHT22;29727;47.606;19.130;2022-09-03T11:07:04;27.10;44.50
44063;DHT22;29727;47.606;19.130;2022-09-03T11:11:59;27.40;44.80
44063;DHT22;29727;47.606;19.130;2022-09-03T11:14:34;27.40;45.80
44063;DHT22;29727;47.606;19.130;2022-09-03T11:17:13;27.60;46.10
44063;DHT22;29727;47.606;19.130;2022-09-03T11:19:54;27.70;43.80
44063;DHT22;29727;47.606;19.130;2022-09-03T11:22:22;27.80;43.50
44063;DHT22;29727;47.606;19.130;2022-09-03T11:24:53;27.70;44.90
44063;DHT22;29727;47.606;19.130;2022-09-03T11:30:21;27.70;44.60
44063;DHT22;29727;47.606;19.130;2022-09-03T11:32:55;27.60;45.10
44063;DHT22;29727;47.606;19.130;2022-09-03T11:40:37;27.60;44.50
44063;DHT22;29727;47.606;19.130;2022-09-03T11:43:23;27.60;42.80
44063;DHT22;29727;47.606;19.130;2022-09-03T11:48:45;27.50;43.30
44063;DHT22;29727;47.606;19.130;2022-09-03T11:53:59;27.40;44.50
44063;DHT22;29727;47.606;19.130;2022-09-03T11:56:26;27.40;45.10
44063;DHT22;29727;47.606;19.130;2022-09-03T12:01:31;27.30;45.90
44063;DHT22;29727;47.606;19.130;2022-09-03T12:04:01;27.20;43.40
44063;DHT22;29727;47.606;19.130;2022-09-03T12:11:44;27.10;45.00
44063;DHT22;29727;47.606;19.130;2022-09-03T12:19:52;27.30;43.90
44063;DHT22;29727;47.606;19.130;2022-09-03T12:22:21;27.40;46.20
44063;DHT22;29727;47.606;19.130;2022-09-03T12:24:47;27.60;46.40
44063;DHT22;29727;47.606;19.130;2022-09-03T12:27:20;27.80;45.70
44063;DHT22;29727;47.606;19.130;2022-09-03T12:30:15;27.90;45.30
44063;DHT22;29727;47.606;19.130;2022-09-03T12:32:41;27.90;44.90
44063;DHT22;29727;47.606;19.130;2022-09-03T12:35:23;27.90;43.90
44063;DHT22;29727;47.606;19.130;2022-09-03T12:37:51;27.80;43.00
44063;DHT22;29727;47.606;19.130;2022-09-03T12:40:19;27.80;43.70
44063;DHT22;29727;47.606;19.130;2022-09-03T12:42:45;27.70;41.70
44063;DHT22;29727;47.606;19.130;2022-09-03T12:45:12;27.60;43.80
44063;DHT22;29727;47.606;19.130;2022-09-03T12:47:41;27.40;43.40
44063;DHT22;29727;47.606;19.130;2022-09-03T12:50:22;27.30;44.70
44063;DHT22;29727;47.606;19.130;2022-09-03T12:52:58;27.30;44.10
44063;DHT22;29727;47.606;19.130;2022-09-03T12:55:48;27.20;44.10
44063;DHT22;29727;47.606;19.130;2022-09-03T13:03:30;27.10;43.80
44063;DHT22;29727;47.606;19.130;2022-09-03T13:06:01;27.00;43.50
44063;DHT22;29727;47.606;19.130;2022-09-03T13:08:43;27.00;43.70
44063;DHT22;29727;47.606;19.130;2022-09-03T13:11:15;26.90;44.80
44063;DHT22;29727;47.606;19.130;2022-09-03T13:14:00;26.80;45.90
44063;DHT22;29727;47.606;19.130;2022-09-03T13:25:14;27.10;44.90
44063;DHT22;29727;47.606;19.130;2022-09-03T13:33:27;27.50;44.10
44063;DHT22;29727;47.606;19.130;2022-09-03T13:36:15;27.60;42.60
44063;DHT22;29727;47.606;19.130;2022-09-03T13:38:53;27.60;42.50
44063;DHT22;29727;47.606;19.130;2022-09-03T13:44:22;27.70;43.40
44063;DHT22;29727;47.606;19.130;2022-09-03T13:46:59;27.70;44.00
44063;DHT22;29727;47.606;19.130;2022-09-03T13:52:39;28.00;42.20
44063;DHT22;29727;47.606;19.130;2022-09-03T13:57:54;28.10;42.60
44063;DHT22;29727;47.606;19.130;2022-09-03T14:00:42;28.20;42.60
44063;DHT22;29727;47.606;19.130;2022-09-03T14:03:31;28.10;42.60
44063;DHT22;29727;47.606;19.130;2022-09-03T14:06:23;28.10;43.20
44063;DHT22;29727;47.606;19.130;2022-09-03T14:12:04;28.00;42.20
44063;DHT22;29727;47.606;19.130;2022-09-03T14:20:29;28.00;43.10
44063;DHT22;29727;47.606;19.130;2022-09-03T14:23:09;28.00;41.90
44063;DHT22;29727;47.606;19.130;2022-09-03T14:25:54;28.00;42.80
44063;DHT22;29727;47.606;19.130;2022-09-03T14:28:30;27.90;42.50
44063;DHT22;29727;47.606;19.130;2022-09-03T14:31:58;27.80;43.50
44063;DHT22;29727;47.606;19.130;2022-09-03T14:36:41;27.70;44.80
44063;DHT22;29727;47.606;19.130;2022-09-03T14:41:56;27.60;43.10
44063;DHT22;29727;47.606;19.130;2022-09-03T14:50:10;27.40;43.90
44063;DHT22;29727;47.606;19.130;2022-09-03T14:55:42;27.40;43.00
44063;DHT22;29727;47.606;19.130;2022-09-03T15:01:22;27.30;42.00
44063;DHT22;29727;47.606;19.130;2022-09-03T15:12:21;27.10;43.60
44063;DHT22;29727;47.606;19.130;2022-09-03T15:14:58;27.10;43.10
44063;DHT22;29727;47.606;19.130;2022-09-03T15:23:06;27.00;43.40
44063;DHT22;29727;47.606;19.130;2022-09-03T22:04:24;18.90;69.90
44063;DHT22;29727;47.606;19.130;2022-09-03T22:12:16;18.90;71.00
44063;DHT22;29727;47.606;19.130;2022-09-03T22:14:45;18.90;71.20
44063;DHT22;29727;47.606;19.130;2022-09-03T22:17:23;18.80;71.60
44063;DHT22;29727;47.606;19.130;2022-09-03T22:19:50;18.80;71.60
44063;DHT22;29727;47.606;19.130;2022-09-03T22:25:02;18.80;71.80
44063;DHT22;29727;47.606;19.130;2022-09-03T22:28:05;18.70;71.60
44063;DHT22;29727;47.606;19.130;2022-09-03T22:30:49;18.70;72.00
44063;DHT22;29727;47.606;19.130;2022-09-03T22:44:14;18.60;72.30
44063;DHT22;29727;47.606;19.130;2022-09-03T22:52:44;18.50;71.90
44063;DHT22;29727;47.606;19.130;2022-09-03T22:55:16;18.50;72.00
44063;DHT22;29727;47.606;19.130;2022-09-03T22:58:10;18.50;72.10
44063;DHT22;29727;47.606;19.130;2022-09-03T23:00:45;18.50;72.20
44063;DHT22;29727;47.606;19.130;2022-09-03T23:03:23;18.40;71.60
44063;DHT22;29727;47.606;19.130;2022-09-03T23:05:59;18.40;72.20
44063;DHT22;29727;47.606;19.130;2022-09-03T23:08:37;18.40;72.10
44063;DHT22;29727;47.606;19.130;2022-09-03T23:13:53;18.40;72.10
44063;DHT22;29727;47.606;19.130;2022-09-03T23:16:38;18.30;72.10
44063;DHT22;29727;47.606;19.130;2022-09-03T23:19:12;18.30;72.20
44063;DHT22;29727;47.606;19.130;2022-09-03T23:21:57;18.30;72.30
44063;DHT22;29727;47.606;19.130;2022-09-03T23:24:32;18.20;72.30
44063;DHT22;29727;47.606;19.130;2022-09-03T23:27:04;18.20;72.50
44063;DHT22;29727;47.606;19.130;2022-09-03T23:29:41;18.20;72.70
44063;DHT22;29727;47.606;19.130;2022-09-03T23:32:09;18.10;72.80
44063;DHT22;29727;47.606;19.130;2022-09-03T23:34:35;18.10;72.70
44063;DHT22;29727;47.606;19.130;2022-09-03T23:40:02;18.10;72.60
44063;DHT22;29727;47.606;19.130;2022-09-03T23:45:37;18.10;72.70
44063;DHT22;29727;47.606;19.130;2022-09-03T23:48:23;18.00;72.80
